createdAt,value
2018-07-03T00:00:16.916Z,1009.70
2018-07-03T00:01:16.895Z,1009.71
2018-07-03T00:02:16.889Z,1009.69
2018-07-03T00:03:16.879Z,1009.71
2018-07-03T00:04:16.896Z,1009.69
2018-07-03T00:05:16.846Z,1009.70
2018-07-03T00:06:16.841Z,1009.72
2018-07-03T00:07:16.824Z,1009.74
2018-07-03T00:08:16.821Z,1009.73
2018-07-03T00:09:16.834Z,1009.77
2018-07-03T00:10:16.810Z,1009.74
2018-07-03T00:11:16.783Z,1009.74
2018-07-03T00:12:16.774Z,1009.71
2018-07-03T00:13:16.759Z,1009.73
2018-07-03T00:14:16.889Z,1009.77
2018-07-03T00:15:16.755Z,1009.80
2018-07-03T00:16:16.728Z,1009.76
2018-07-03T00:17:16.714Z,1009.77
2018-07-03T00:18:16.704Z,1009.76
2018-07-03T00:19:16.714Z,1009.75
2018-07-03T00:20:16.686Z,1009.72
2018-07-03T00:21:16.673Z,1009.76
2018-07-03T00:22:16.662Z,1009.73
2018-07-03T00:23:16.647Z,1009.73
2018-07-03T00:24:16.662Z,1009.71
2018-07-03T00:25:16.638Z,1009.65
2018-07-03T00:26:16.626Z,1009.71
2018-07-03T00:27:16.605Z,1009.66
2018-07-03T00:28:16.599Z,1009.64
2018-07-03T00:29:16.605Z,1009.67
2018-07-03T00:30:16.585Z,1009.68
2018-07-03T00:31:16.561Z,1009.67
2018-07-03T00:32:16.565Z,1009.72
2018-07-03T00:33:16.542Z,1009.69
2018-07-03T00:34:16.552Z,1009.70
2018-07-03T00:35:16.529Z,1009.69
2018-07-03T00:36:16.464Z,1009.68
2018-07-03T00:37:16.500Z,1009.67
2018-07-03T00:38:16.518Z,1009.68
2018-07-03T00:39:16.503Z,1009.67
2018-07-03T00:40:16.469Z,1009.64
2018-07-03T00:41:16.452Z,1009.64
2018-07-03T00:42:16.450Z,1009.63
2018-07-03T00:43:16.390Z,1009.63
2018-07-03T00:44:16.451Z,1009.64
2018-07-03T00:45:16.410Z,1009.67
2018-07-03T00:46:16.409Z,1009.63
2018-07-03T00:47:16.387Z,1009.66
2018-07-03T00:48:16.380Z,1009.64
2018-07-03T00:49:16.387Z,1009.63
2018-07-03T00:50:16.363Z,1009.62
2018-07-03T00:51:16.345Z,1009.67
2018-07-03T00:52:16.335Z,1009.65
2018-07-03T00:53:16.325Z,1009.63
2018-07-03T00:54:16.466Z,1009.64
2018-07-03T00:55:16.301Z,1009.62
2018-07-03T00:56:16.300Z,1009.61
2018-07-03T00:57:16.278Z,1009.60
2018-07-03T00:58:16.262Z,1009.60
2018-07-03T00:59:16.279Z,1009.60
2018-07-03T01:00:16.204Z,1009.57
2018-07-03T01:01:16.230Z,1009.57
2018-07-03T01:02:16.234Z,1009.56
2018-07-03T01:03:16.213Z,1009.56
2018-07-03T01:04:16.221Z,1009.51
2018-07-03T01:05:16.189Z,1009.54
2018-07-03T01:06:16.183Z,1009.57
2018-07-03T01:07:16.166Z,1009.58
2018-07-03T01:08:16.166Z,1009.57
2018-07-03T01:09:16.173Z,1009.54
2018-07-03T01:10:16.150Z,1009.53
2018-07-03T01:11:16.082Z,1009.56
2018-07-03T01:12:16.114Z,1009.51
2018-07-03T01:13:16.127Z,1009.48
2018-07-03T01:14:16.114Z,1009.54
2018-07-03T01:15:16.083Z,1009.55
2018-07-03T01:16:16.070Z,1009.54
2018-07-03T01:17:16.065Z,1009.56
2018-07-03T01:18:16.013Z,1009.57
2018-07-03T01:19:16.065Z,1009.56
2018-07-03T01:20:16.034Z,1009.62
2018-07-03T01:21:16.023Z,1009.57
2018-07-03T01:22:16.008Z,1009.62
2018-07-03T01:23:16.001Z,1009.54
2018-07-03T01:24:16.019Z,1009.55
2018-07-03T01:25:15.937Z,1009.53
2018-07-03T01:26:15.964Z,1009.55
2018-07-03T01:27:15.971Z,1009.56
2018-07-03T01:28:15.947Z,1009.54
2018-07-03T01:29:15.959Z,1009.57
2018-07-03T01:30:15.929Z,1009.55
2018-07-03T01:31:15.886Z,1009.49
2018-07-03T01:32:15.901Z,1009.54
2018-07-03T01:33:15.898Z,1009.55
2018-07-03T01:34:15.842Z,1009.58
2018-07-03T01:35:15.911Z,1009.57
2018-07-03T01:36:15.914Z,1009.55
2018-07-03T01:37:15.853Z,1009.57
2018-07-03T01:38:15.849Z,1009.54
2018-07-03T01:39:15.780Z,1009.51
2018-07-03T01:40:15.843Z,1009.54
2018-07-03T01:41:15.814Z,1009.52
2018-07-03T01:42:15.800Z,1009.49
2018-07-03T01:43:15.800Z,1009.50
2018-07-03T01:44:15.785Z,1009.47
2018-07-03T01:45:15.747Z,1009.50
2018-07-03T01:46:15.750Z,1009.47
2018-07-03T01:47:15.743Z,1009.46
2018-07-03T01:48:15.729Z,1009.45
2018-07-03T01:49:15.722Z,1009.43
2018-07-03T01:50:15.817Z,1009.51
2018-07-03T01:51:15.703Z,1009.43
2018-07-03T01:52:15.685Z,1009.47
2018-07-03T01:53:15.690Z,1009.47
2018-07-03T01:54:15.664Z,1009.50
2018-07-03T01:55:15.706Z,1009.49
2018-07-03T01:56:15.644Z,1009.48
2018-07-03T01:57:15.596Z,1009.51
2018-07-03T01:58:15.628Z,1009.49
2018-07-03T01:59:15.668Z,1009.51
2018-07-03T02:00:15.625Z,1009.51
2018-07-03T02:01:15.607Z,1009.49
2018-07-03T02:02:15.592Z,1009.48
2018-07-03T02:03:15.574Z,1009.50
2018-07-03T02:04:15.561Z,1009.48
2018-07-03T02:05:15.571Z,1009.46
2018-07-03T02:06:15.622Z,1009.45
2018-07-03T02:07:15.524Z,1009.46
2018-07-03T02:08:15.522Z,1009.47
2018-07-03T02:09:15.509Z,1009.44
2018-07-03T02:10:15.517Z,1009.41
2018-07-03T02:11:15.589Z,1009.43
2018-07-03T02:12:15.473Z,1009.42
2018-07-03T02:13:15.467Z,1009.44
2018-07-03T02:14:15.461Z,1009.41
2018-07-03T02:15:15.418Z,1009.41
2018-07-03T02:16:15.434Z,1009.45
2018-07-03T02:17:15.432Z,1009.46
2018-07-03T02:18:15.407Z,1009.47
2018-07-03T02:19:15.402Z,1009.46
2018-07-03T02:20:15.374Z,1009.41
2018-07-03T02:21:15.387Z,1009.42
2018-07-03T02:22:15.368Z,1009.39
2018-07-03T02:23:15.363Z,1009.40
2018-07-03T02:24:15.346Z,1009.42
2018-07-03T02:25:15.339Z,1009.36
2018-07-03T02:26:15.324Z,1009.42
2018-07-03T02:27:15.465Z,1009.40
2018-07-03T02:28:15.306Z,1009.35
2018-07-03T02:29:15.299Z,1009.40
2018-07-03T02:30:15.342Z,1009.44
2018-07-03T02:31:15.285Z,1009.39
2018-07-03T02:32:15.261Z,1009.41
2018-07-03T02:33:15.261Z,1009.39
2018-07-03T02:34:15.244Z,1009.43
2018-07-03T02:35:15.253Z,1009.42
2018-07-03T02:36:15.227Z,1009.42
2018-07-03T02:37:15.219Z,1009.39
2018-07-03T02:38:15.195Z,1009.38
2018-07-03T02:39:15.203Z,1009.38
2018-07-03T02:40:15.153Z,1009.38
2018-07-03T02:41:15.180Z,1009.35
2018-07-03T02:42:15.161Z,1009.39
2018-07-03T02:43:15.142Z,1009.40
2018-07-03T02:44:15.136Z,1009.35
2018-07-03T02:45:15.145Z,1009.36
2018-07-03T02:46:15.155Z,1009.33
2018-07-03T02:47:15.107Z,1009.34
2018-07-03T02:48:15.094Z,1009.33
2018-07-03T02:49:15.074Z,1009.31
2018-07-03T02:50:15.095Z,1009.30
2018-07-03T02:51:15.060Z,1009.31
2018-07-03T02:52:15.045Z,1009.30
2018-07-03T02:53:15.034Z,1009.28
2018-07-03T02:54:15.037Z,1009.29
2018-07-03T02:55:15.042Z,1009.29
2018-07-03T02:56:14.998Z,1009.28
2018-07-03T02:57:14.995Z,1009.27
2018-07-03T02:58:14.980Z,1009.19
2018-07-03T02:59:15.000Z,1009.23
2018-07-03T03:00:14.986Z,1009.27
2018-07-03T03:01:14.944Z,1009.26
2018-07-03T03:02:14.931Z,1009.26
2018-07-03T03:03:14.933Z,1009.27
2018-07-03T03:04:14.918Z,1009.31
2018-07-03T03:05:14.883Z,1009.29
2018-07-03T03:06:14.892Z,1009.31
2018-07-03T03:07:14.836Z,1009.28
2018-07-03T03:08:14.912Z,1009.33
2018-07-03T03:09:14.865Z,1009.34
2018-07-03T03:10:14.934Z,1009.31
2018-07-03T03:11:14.836Z,1009.30
2018-07-03T03:12:14.823Z,1009.30
2018-07-03T03:13:14.816Z,1009.36
2018-07-03T03:14:14.818Z,1009.30
2018-07-03T03:15:14.818Z,1009.32
2018-07-03T03:16:14.794Z,1009.25
2018-07-03T03:17:14.782Z,1009.28
2018-07-03T03:18:14.762Z,1009.28
2018-07-03T03:19:14.754Z,1009.33
2018-07-03T03:20:14.749Z,1009.39
2018-07-03T03:21:14.756Z,1009.36
2018-07-03T03:22:14.730Z,1009.41
2018-07-03T03:23:14.670Z,1009.43
2018-07-03T03:24:14.697Z,1009.46
2018-07-03T03:25:14.682Z,1009.45
2018-07-03T03:26:14.768Z,1009.44
2018-07-03T03:27:14.673Z,1009.45
2018-07-03T03:28:14.653Z,1009.45
2018-07-03T03:29:14.653Z,1009.43
2018-07-03T03:30:14.633Z,1009.40
2018-07-03T03:31:14.655Z,1009.42
2018-07-03T03:32:14.611Z,1009.35
2018-07-03T03:33:14.617Z,1009.34
2018-07-03T03:34:14.541Z,1009.40
2018-07-03T03:35:14.578Z,1009.49
2018-07-03T03:36:14.588Z,1009.46
2018-07-03T03:37:14.560Z,1009.54
2018-07-03T03:38:14.547Z,1009.52
2018-07-03T03:39:14.549Z,1009.52
2018-07-03T03:40:14.521Z,1009.57
2018-07-03T03:41:14.542Z,1009.57
2018-07-03T03:42:14.585Z,1009.59
2018-07-03T03:43:14.495Z,1009.58
2018-07-03T03:44:14.491Z,1009.53
2018-07-03T03:45:14.465Z,1009.59
2018-07-03T03:46:14.480Z,1009.54
2018-07-03T03:47:14.451Z,1009.57
2018-07-03T03:48:14.436Z,1009.55
2018-07-03T03:49:14.445Z,1009.58
2018-07-03T03:50:14.419Z,1009.61
2018-07-03T03:51:14.434Z,1009.58
2018-07-03T03:52:14.388Z,1009.60
2018-07-03T03:53:14.385Z,1009.60
2018-07-03T03:54:14.348Z,1009.61
2018-07-03T03:55:14.367Z,1009.64
2018-07-03T03:56:14.363Z,1009.62
2018-07-03T03:57:14.331Z,1009.59
2018-07-03T03:58:14.327Z,1009.58
2018-07-03T03:59:14.317Z,1009.56
2018-07-03T04:00:14.315Z,1009.60
2018-07-03T04:01:14.276Z,1009.58
2018-07-03T04:02:14.379Z,1009.59
2018-07-03T04:03:14.310Z,1009.58
2018-07-03T04:04:14.265Z,1009.61
2018-07-03T04:05:14.261Z,1009.62
2018-07-03T04:06:14.268Z,1009.58
2018-07-03T04:07:14.237Z,1009.65
2018-07-03T04:08:14.219Z,1009.68
2018-07-03T04:09:14.208Z,1009.69
2018-07-03T04:10:14.194Z,1009.71
2018-07-03T04:11:14.206Z,1009.75
2018-07-03T04:12:14.180Z,1009.75
2018-07-03T04:13:14.161Z,1009.77
2018-07-03T04:14:14.159Z,1009.76
2018-07-03T04:15:14.148Z,1009.72
2018-07-03T04:16:14.335Z,1009.75
2018-07-03T04:17:14.119Z,1009.75
2018-07-03T04:18:14.114Z,1009.77
2018-07-03T04:19:14.158Z,1009.81
2018-07-03T04:20:14.084Z,1009.81
2018-07-03T04:21:14.094Z,1009.84
2018-07-03T04:22:14.069Z,1009.83
2018-07-03T04:23:14.058Z,1009.89
2018-07-03T04:24:14.043Z,1009.84
2018-07-03T04:25:14.036Z,1009.82
2018-07-03T04:26:14.060Z,1009.86
2018-07-03T04:27:14.012Z,1009.86
2018-07-03T04:28:14.004Z,1009.83
2018-07-03T04:29:13.946Z,1009.84
2018-07-03T04:30:13.975Z,1009.82
2018-07-03T04:31:13.991Z,1009.80
2018-07-03T04:32:13.918Z,1009.82
2018-07-03T04:33:13.946Z,1009.79
2018-07-03T04:34:13.938Z,1009.80
2018-07-03T04:35:13.980Z,1009.83
2018-07-03T04:36:13.903Z,1009.81
2018-07-03T04:37:13.908Z,1009.83
2018-07-03T04:38:13.891Z,1009.88
2018-07-03T04:39:13.886Z,1009.84
2018-07-03T04:40:13.838Z,1009.79
2018-07-03T04:41:13.884Z,1009.82
2018-07-03T04:42:13.848Z,1009.78
2018-07-03T04:43:13.842Z,1009.78
2018-07-03T04:44:13.825Z,1009.76
2018-07-03T04:45:13.813Z,1009.78
2018-07-03T04:46:13.841Z,1009.77
2018-07-03T04:47:13.760Z,1009.79
2018-07-03T04:48:13.799Z,1009.78
2018-07-03T04:49:13.775Z,1009.81
2018-07-03T04:50:13.767Z,1009.83
2018-07-03T04:51:13.779Z,1009.84
2018-07-03T04:52:13.754Z,1009.82
2018-07-03T04:53:13.728Z,1009.85
2018-07-03T04:54:13.718Z,1009.85
2018-07-03T04:55:13.728Z,1009.83
2018-07-03T04:56:13.897Z,1009.82
2018-07-03T04:57:13.702Z,1009.87
2018-07-03T04:58:13.677Z,1009.85
2018-07-03T04:59:13.663Z,1009.88
2018-07-03T05:00:13.652Z,1009.89
2018-07-03T05:01:13.675Z,1009.89
2018-07-03T05:02:13.645Z,1009.90
2018-07-03T05:03:13.579Z,1009.91
2018-07-03T05:04:13.617Z,1009.93
2018-07-03T05:05:13.598Z,1009.93
2018-07-03T05:06:13.594Z,1009.94
2018-07-03T05:07:13.604Z,1009.98
2018-07-03T05:08:13.581Z,1009.94
2018-07-03T05:09:13.562Z,1009.97
2018-07-03T05:10:13.571Z,1010.01
2018-07-03T05:11:13.538Z,1010.01
2018-07-03T05:12:13.581Z,1010.00
2018-07-03T05:13:13.518Z,1009.99
2018-07-03T05:14:13.511Z,1009.98
2018-07-03T05:15:13.467Z,1010.04
2018-07-03T05:16:13.482Z,1009.99
2018-07-03T05:17:13.486Z,1010.06
2018-07-03T05:18:13.456Z,1010.03
2018-07-03T05:19:13.445Z,1010.05
2018-07-03T05:20:13.445Z,1010.06
2018-07-03T05:21:13.435Z,1010.09
2018-07-03T05:22:13.435Z,1010.12
2018-07-03T05:23:13.402Z,1010.17
2018-07-03T05:24:13.394Z,1010.17
2018-07-03T05:25:13.343Z,1010.18
2018-07-03T05:26:13.386Z,1010.11
2018-07-03T05:27:13.341Z,1010.10
2018-07-03T05:28:13.309Z,1010.10
2018-07-03T05:29:13.331Z,1010.21
2018-07-03T05:30:13.330Z,1010.18
2018-07-03T05:31:13.321Z,1010.21
2018-07-03T05:32:13.334Z,1010.22
2018-07-03T05:33:13.293Z,1010.24
2018-07-03T05:34:13.291Z,1010.19
2018-07-03T05:35:13.234Z,1010.21
2018-07-03T05:36:13.261Z,1010.25
2018-07-03T05:37:13.241Z,1010.24
2018-07-03T05:38:13.251Z,1010.20
2018-07-03T05:39:13.232Z,1010.20
2018-07-03T05:40:13.218Z,1010.22
2018-07-03T05:41:13.211Z,1010.21
2018-07-03T05:42:13.221Z,1010.23
2018-07-03T05:43:13.183Z,1010.20
2018-07-03T05:44:13.170Z,1010.20
2018-07-03T05:45:13.174Z,1010.23
2018-07-03T05:46:13.166Z,1010.20
2018-07-03T05:47:13.165Z,1010.22
2018-07-03T05:48:13.138Z,1010.23
2018-07-03T05:49:13.079Z,1010.22
2018-07-03T05:50:13.111Z,1010.24
2018-07-03T05:51:13.099Z,1010.27
2018-07-03T05:52:13.135Z,1010.26
2018-07-03T05:53:13.076Z,1010.29
2018-07-03T05:54:13.081Z,1010.31
2018-07-03T05:55:13.060Z,1010.25
2018-07-03T05:56:13.104Z,1010.29
2018-07-03T05:57:13.055Z,1010.30
2018-07-03T05:58:13.022Z,1010.28
2018-07-03T05:59:13.012Z,1010.29
2018-07-03T06:00:12.999Z,1010.27
2018-07-03T06:01:12.998Z,1010.32
2018-07-03T06:02:13.016Z,1010.30
2018-07-03T06:03:12.926Z,1010.33
2018-07-03T06:04:13.108Z,1010.34
2018-07-03T06:05:12.917Z,1010.36
2018-07-03T06:06:12.935Z,1010.36
2018-07-03T06:07:12.951Z,1010.34
2018-07-03T06:08:12.916Z,1010.33
2018-07-03T06:09:12.973Z,1010.39
2018-07-03T06:10:12.893Z,1010.37
2018-07-03T06:11:12.891Z,1010.35
2018-07-03T06:12:13.356Z,1010.41
2018-07-03T06:13:12.862Z,1010.43
2018-07-03T06:14:12.851Z,1010.36
2018-07-03T06:15:12.837Z,1010.40
2018-07-03T06:16:12.846Z,1010.35
2018-07-03T06:17:12.814Z,1010.34
2018-07-03T06:18:12.848Z,1010.39
2018-07-03T06:19:12.797Z,1010.35
2018-07-03T06:20:12.797Z,1010.37
2018-07-03T06:21:12.734Z,1010.38
2018-07-03T06:22:12.778Z,1010.38
2018-07-03T06:23:12.781Z,1010.44
2018-07-03T06:24:12.700Z,1010.42
2018-07-03T06:25:12.741Z,1010.39
2018-07-03T06:26:12.721Z,1010.43
2018-07-03T06:27:12.709Z,1010.42
2018-07-03T06:28:12.718Z,1010.39
2018-07-03T06:29:12.701Z,1010.43
2018-07-03T06:30:12.704Z,1010.46
2018-07-03T06:31:12.667Z,1010.41
2018-07-03T06:32:12.664Z,1010.46
2018-07-03T06:33:12.667Z,1010.50
2018-07-03T06:34:12.632Z,1010.62
2018-07-03T06:35:12.677Z,1010.67
2018-07-03T06:36:12.612Z,1010.67
2018-07-03T06:37:12.612Z,1010.72
2018-07-03T06:38:12.616Z,1010.73
2018-07-03T06:39:12.587Z,1010.75
2018-07-03T06:40:12.567Z,1010.77
2018-07-03T06:41:12.564Z,1010.77
2018-07-03T06:42:12.545Z,1010.72
2018-07-03T06:43:12.728Z,1010.76
2018-07-03T06:44:12.714Z,1010.79
2018-07-03T06:45:12.535Z,1010.79
2018-07-03T06:46:12.506Z,1010.79
2018-07-03T06:47:12.512Z,1010.77
2018-07-03T06:48:12.548Z,1010.81
2018-07-03T06:49:12.486Z,1010.76
2018-07-03T06:50:12.464Z,1010.77
2018-07-03T06:51:12.471Z,1010.83
2018-07-03T06:52:12.449Z,1010.79
2018-07-03T06:53:12.454Z,1010.79
2018-07-03T06:54:12.421Z,1010.79
2018-07-03T06:55:12.421Z,1010.81
2018-07-03T06:56:12.406Z,1010.77
2018-07-03T06:57:12.392Z,1010.77
2018-07-03T06:58:12.428Z,1010.74
2018-07-03T06:59:12.370Z,1010.79
2018-07-03T07:00:12.366Z,1010.79
2018-07-03T07:01:12.353Z,1010.78
2018-07-03T07:02:12.352Z,1010.79
2018-07-03T07:03:12.363Z,1010.78
2018-07-03T07:04:12.278Z,1010.83
2018-07-03T07:05:12.317Z,1010.84
2018-07-03T07:06:12.304Z,1010.78
2018-07-03T07:07:12.302Z,1010.78
2018-07-03T07:08:12.324Z,1010.79
2018-07-03T07:09:12.378Z,1010.81
2018-07-03T07:10:12.268Z,1010.81
2018-07-03T07:11:12.266Z,1010.76
2018-07-03T07:12:12.242Z,1010.73
2018-07-03T07:13:12.237Z,1010.74
2018-07-03T07:14:12.251Z,1010.74
2018-07-03T07:15:12.211Z,1010.72
2018-07-03T07:16:12.217Z,1010.68
2018-07-03T07:17:12.198Z,1010.71
2018-07-03T07:18:12.178Z,1010.73
2018-07-03T07:19:12.197Z,1010.72
2018-07-03T07:20:12.167Z,1010.71
2018-07-03T07:21:12.151Z,1010.75
2018-07-03T07:22:12.143Z,1010.75
2018-07-03T07:23:12.139Z,1010.70
2018-07-03T07:24:12.143Z,1010.70
2018-07-03T07:25:12.068Z,1010.68
2018-07-03T07:26:12.099Z,1010.67
2018-07-03T07:27:12.092Z,1010.72
2018-07-03T07:28:12.041Z,1010.70
2018-07-03T07:29:12.150Z,1010.65
2018-07-03T07:30:12.068Z,1010.59
2018-07-03T07:31:12.053Z,1010.62
2018-07-03T07:32:12.055Z,1010.61
2018-07-03T07:33:12.029Z,1010.64
2018-07-03T07:34:41.432Z,1010.63
2018-07-03T07:35:41.423Z,1010.64
2018-07-03T07:36:41.408Z,1010.66
2018-07-03T07:37:41.404Z,1010.65
2018-07-03T07:38:41.391Z,1010.63
2018-07-03T07:39:41.422Z,1010.65
2018-07-03T07:40:41.368Z,1010.66
2018-07-03T07:41:41.364Z,1010.67
2018-07-03T07:42:41.321Z,1010.65
2018-07-03T07:43:41.351Z,1010.68
2018-07-03T07:44:41.306Z,1010.67
2018-07-03T07:45:41.317Z,1010.69
2018-07-03T07:46:41.333Z,1010.66
2018-07-03T07:47:41.304Z,1010.68
2018-07-03T07:48:41.292Z,1010.66
2018-07-03T07:49:41.346Z,1010.65
2018-07-03T07:50:41.273Z,1010.62
2018-07-03T07:51:41.257Z,1010.65
2018-07-03T07:52:41.247Z,1010.63
2018-07-03T07:53:41.242Z,1010.61
2018-07-03T07:54:41.252Z,1010.62
2018-07-03T07:55:41.214Z,1010.59
2018-07-03T07:56:41.208Z,1010.60
2018-07-03T07:57:41.195Z,1010.64
2018-07-03T07:58:41.197Z,1010.61
2018-07-03T07:59:41.204Z,1010.62
2018-07-03T08:00:41.170Z,1010.57
2018-07-03T08:01:41.162Z,1010.57
2018-07-03T08:02:41.115Z,1010.54
2018-07-03T08:03:41.192Z,1010.55
2018-07-03T08:04:41.150Z,1010.56
2018-07-03T08:05:41.077Z,1010.58
2018-07-03T08:06:41.126Z,1010.55
2018-07-03T08:07:41.101Z,1010.54
2018-07-03T08:08:41.101Z,1010.57
2018-07-03T08:09:41.111Z,1010.56
2018-07-03T08:10:41.075Z,1010.51
2018-07-03T08:11:41.068Z,1010.53
2018-07-03T08:12:41.048Z,1010.53
2018-07-03T08:13:41.050Z,1010.55
2018-07-03T08:14:41.050Z,1010.55
2018-07-03T08:15:41.021Z,1010.53
2018-07-03T08:16:41.003Z,1010.54
2018-07-03T08:17:40.954Z,1010.55
2018-07-03T08:18:40.987Z,1010.56
2018-07-03T08:19:41.034Z,1010.54
2018-07-03T08:20:40.969Z,1010.56
2018-07-03T08:21:40.952Z,1010.58
2018-07-03T08:22:40.954Z,1010.54
2018-07-03T08:23:40.895Z,1010.57
2018-07-03T08:24:40.959Z,1010.58
2018-07-03T08:25:40.944Z,1010.56
2018-07-03T08:26:40.945Z,1010.57
2018-07-03T08:27:40.897Z,1010.56
2018-07-03T08:28:40.887Z,1010.53
2018-07-03T08:29:40.901Z,1010.48
2018-07-03T08:30:40.863Z,1010.48
2018-07-03T08:31:40.876Z,1010.52
2018-07-03T08:32:40.844Z,1010.47
2018-07-03T08:33:40.834Z,1010.46
2018-07-03T08:34:40.901Z,1010.46
2018-07-03T08:35:40.872Z,1010.40
2018-07-03T08:36:40.811Z,1010.50
2018-07-03T08:37:40.793Z,1010.51
2018-07-03T08:38:40.785Z,1010.48
2018-07-03T08:39:40.811Z,1010.47
2018-07-03T08:40:40.776Z,1010.46
2018-07-03T08:41:40.760Z,1010.45
2018-07-03T08:42:40.831Z,1010.44
2018-07-03T08:43:40.740Z,1010.41
2018-07-03T08:44:40.759Z,1010.39
2018-07-03T08:45:40.746Z,1010.37
2018-07-03T08:46:40.708Z,1010.33
2018-07-03T08:47:40.696Z,1010.32
2018-07-03T08:48:40.715Z,1010.38
2018-07-03T08:49:40.703Z,1010.30
2018-07-03T08:50:40.684Z,1010.29
2018-07-03T08:51:40.686Z,1010.17
2018-07-03T08:52:40.653Z,1010.03
2018-07-03T08:53:40.631Z,1010.05
2018-07-03T08:54:40.653Z,1010.07
2018-07-03T08:55:40.617Z,1010.03
2018-07-03T08:56:40.624Z,1010.00
2018-07-03T08:57:40.591Z,1010.00
2018-07-03T08:58:40.586Z,1010.03
2018-07-03T08:59:40.599Z,1010.04
2018-07-03T09:00:40.560Z,1009.99
2018-07-03T09:01:40.576Z,1010.05
2018-07-03T09:02:40.537Z,1009.97
2018-07-03T09:03:40.625Z,1009.99
2018-07-03T09:04:40.522Z,1010.02
2018-07-03T09:05:40.525Z,1010.07
2018-07-03T09:06:40.601Z,1010.04
2018-07-03T09:07:40.491Z,1009.98
2018-07-03T09:08:40.480Z,1010.03
2018-07-03T09:09:40.478Z,1009.98
2018-07-03T09:10:40.495Z,1009.98
2018-07-03T09:11:40.451Z,1010.04
2018-07-03T09:12:40.437Z,1010.02
2018-07-03T09:13:40.435Z,1010.01
2018-07-03T09:14:40.415Z,1010.03
2018-07-03T09:15:40.456Z,1010.06
2018-07-03T09:16:40.357Z,1010.09
2018-07-03T09:17:40.401Z,1010.08
2018-07-03T09:18:40.378Z,1010.02
2018-07-03T09:19:40.336Z,1010.02
2018-07-03T09:20:40.391Z,1010.03
2018-07-03T09:21:40.348Z,1010.03
2018-07-03T09:22:40.307Z,1010.02
2018-07-03T09:23:40.326Z,1010.02
2018-07-03T09:24:40.323Z,1009.97
2018-07-03T09:25:40.329Z,1010.03
2018-07-03T09:26:40.290Z,1010.04
2018-07-03T09:27:40.289Z,1010.05
2018-07-03T09:28:40.281Z,1009.98
2018-07-03T09:29:40.260Z,1009.97
2018-07-03T09:30:40.321Z,1009.99
2018-07-03T09:31:40.245Z,1009.98
2018-07-03T09:32:40.239Z,1010.00
2018-07-03T09:33:40.246Z,1010.00
2018-07-03T09:34:40.216Z,1009.99
2018-07-03T09:35:40.241Z,1009.94
2018-07-03T09:36:40.195Z,1009.93
2018-07-03T09:37:40.185Z,1010.00
2018-07-03T09:38:40.213Z,1009.95
2018-07-03T09:39:40.126Z,1009.92
2018-07-03T09:40:40.177Z,1009.87
2018-07-03T09:41:40.137Z,1009.87
2018-07-03T09:42:40.145Z,1009.90
2018-07-03T09:43:40.120Z,1009.89
2018-07-03T09:44:40.109Z,1009.89
2018-07-03T09:45:40.120Z,1009.88
2018-07-03T09:46:40.087Z,1009.91
2018-07-03T09:47:40.083Z,1009.92
2018-07-03T09:48:40.074Z,1009.92
2018-07-03T09:49:40.061Z,1009.88
2018-07-03T09:50:40.080Z,1009.92
2018-07-03T09:51:40.037Z,1009.87
2018-07-03T09:52:40.022Z,1009.86
2018-07-03T09:53:40.013Z,1009.92
2018-07-03T09:54:40.078Z,1009.88
2018-07-03T09:55:40.016Z,1009.88
2018-07-03T09:56:39.985Z,1009.85
2018-07-03T09:57:39.966Z,1009.87
2018-07-03T09:58:39.959Z,1009.86
2018-07-03T09:59:40.021Z,1009.84
2018-07-03T10:00:39.972Z,1009.86
2018-07-03T10:01:39.930Z,1009.83
2018-07-03T10:02:39.876Z,1009.83
2018-07-03T10:03:39.928Z,1009.85
2018-07-03T10:04:39.897Z,1009.86
2018-07-03T10:05:39.929Z,1009.86
2018-07-03T10:06:39.881Z,1009.83
2018-07-03T10:07:39.871Z,1009.82
2018-07-03T10:08:39.861Z,1009.83
2018-07-03T10:09:39.853Z,1009.85
2018-07-03T10:10:39.833Z,1009.84
2018-07-03T10:11:39.827Z,1009.82
2018-07-03T10:12:39.823Z,1009.88
2018-07-03T10:13:39.808Z,1009.80
2018-07-03T10:14:39.806Z,1009.82
2018-07-03T10:15:39.955Z,1009.80
2018-07-03T10:16:39.780Z,1009.79
2018-07-03T10:17:39.730Z,1009.84
2018-07-03T10:18:39.782Z,1009.84
2018-07-03T10:19:39.743Z,1009.85
2018-07-03T10:20:39.741Z,1009.81
2018-07-03T10:21:39.754Z,1009.81
2018-07-03T10:22:39.720Z,1009.80
2018-07-03T10:23:39.711Z,1009.84
2018-07-03T10:24:39.652Z,1009.82
2018-07-03T10:25:39.687Z,1009.80
2018-07-03T10:26:39.705Z,1009.80
2018-07-03T10:27:39.667Z,1009.81
2018-07-03T10:28:39.664Z,1009.79
2018-07-03T10:29:39.650Z,1009.85
2018-07-03T10:30:39.639Z,1009.84
2018-07-03T10:31:39.790Z,1009.81
2018-07-03T10:32:39.613Z,1009.81
2018-07-03T10:33:39.613Z,1009.77
2018-07-03T10:34:39.607Z,1009.73
2018-07-03T10:35:39.580Z,1009.76
2018-07-03T10:36:39.598Z,1009.82
2018-07-03T10:37:39.521Z,1009.85
2018-07-03T10:38:39.516Z,1009.78
2018-07-03T10:39:39.678Z,1009.77
2018-07-03T10:40:39.551Z,1009.77
2018-07-03T10:41:39.548Z,1009.76
2018-07-03T10:42:39.511Z,1009.75
2018-07-03T10:43:39.505Z,1009.73
2018-07-03T10:44:39.499Z,1009.71
2018-07-03T10:45:39.480Z,1009.69
2018-07-03T10:46:39.492Z,1009.65
2018-07-03T10:47:39.455Z,1009.65
2018-07-03T10:48:39.451Z,1009.61
2018-07-03T10:49:39.440Z,1009.68
2018-07-03T10:50:39.386Z,1009.67
2018-07-03T10:51:39.450Z,1009.69
2018-07-03T10:52:39.409Z,1009.68
2018-07-03T10:53:39.398Z,1009.62
2018-07-03T10:54:39.383Z,1009.57
2018-07-03T10:55:39.380Z,1009.63
2018-07-03T10:56:39.388Z,1009.65
2018-07-03T10:57:39.310Z,1009.66
2018-07-03T10:58:39.360Z,1009.63
2018-07-03T10:59:39.382Z,1009.66
2018-07-03T11:00:39.328Z,1009.60
2018-07-03T11:01:39.776Z,1009.63
2018-07-03T11:02:39.386Z,1009.58
2018-07-03T11:03:39.328Z,1009.65
2018-07-03T11:04:39.286Z,1009.62
2018-07-03T11:05:39.293Z,1009.60
2018-07-03T11:06:39.294Z,1009.52
2018-07-03T11:07:39.260Z,1009.61
2018-07-03T11:08:39.249Z,1009.55
2018-07-03T11:09:39.190Z,1009.59
2018-07-03T11:10:39.216Z,1009.55
2018-07-03T11:11:39.271Z,1009.52
2018-07-03T11:12:39.206Z,1009.51
2018-07-03T11:13:39.196Z,1009.53
2018-07-03T11:14:39.212Z,1009.50
2018-07-03T11:15:39.155Z,1009.47
2018-07-03T11:16:39.238Z,1009.48
2018-07-03T11:17:39.155Z,1009.41
2018-07-03T11:18:39.151Z,1009.41
2018-07-03T11:19:39.194Z,1009.40
2018-07-03T11:20:39.141Z,1009.45
2018-07-03T11:21:39.137Z,1009.47
2018-07-03T11:22:39.100Z,1009.44
2018-07-03T11:23:39.088Z,1009.44
2018-07-03T11:24:39.078Z,1009.41
2018-07-03T11:25:39.075Z,1009.39
2018-07-03T11:26:39.111Z,1009.40
2018-07-03T11:27:39.053Z,1009.42
2018-07-03T11:28:39.040Z,1009.37
2018-07-03T11:29:39.029Z,1009.39
2018-07-03T11:30:39.017Z,1009.30
2018-07-03T11:31:39.043Z,1009.31
2018-07-03T11:32:39.010Z,1009.35
2018-07-03T11:33:38.985Z,1009.31
2018-07-03T11:34:38.974Z,1009.31
2018-07-03T11:35:38.968Z,1009.33
2018-07-03T11:36:38.975Z,1009.26
2018-07-03T11:37:38.986Z,1009.25
2018-07-03T11:38:38.937Z,1009.25
2018-07-03T11:39:38.942Z,1009.28
2018-07-03T11:40:38.911Z,1009.25
2018-07-03T11:41:38.921Z,1009.22
2018-07-03T11:42:38.900Z,1009.19
2018-07-03T11:43:38.880Z,1009.23
2018-07-03T11:44:38.877Z,1009.26
2018-07-03T11:45:38.864Z,1009.27
2018-07-03T11:46:38.915Z,1009.23
2018-07-03T11:47:38.839Z,1009.18
2018-07-03T11:48:38.830Z,1009.21
2018-07-03T11:49:38.826Z,1009.19
2018-07-03T11:50:38.816Z,1009.17
2018-07-03T11:51:38.876Z,1009.17
2018-07-03T11:52:38.794Z,1009.18
2018-07-03T11:53:38.813Z,1009.20
2018-07-03T11:54:38.781Z,1009.18
2018-07-03T11:55:38.763Z,1009.16
2018-07-03T11:56:38.743Z,1009.15
2018-07-03T11:57:38.773Z,1009.13
2018-07-03T11:58:38.721Z,1009.11
2018-07-03T11:59:38.713Z,1009.09
2018-07-03T12:00:38.716Z,1009.11
2018-07-03T12:01:38.743Z,1009.16
2018-07-03T12:02:38.716Z,1009.16
2018-07-03T12:03:38.673Z,1009.12
2018-07-03T12:04:38.665Z,1009.06
2018-07-03T12:05:38.658Z,1009.05